Flight Information

DEPARTURE
NEW CUYAMA, CA
Elevation:
2203
Runways:
10/28 - 3940x60 - ASPH-P
CTAF:
122.900
DESTINATION
SAN LUIS OBISPO, CA
Elevation:
212
TPA:
1212 (est.)
Runways:
7/25 - 2500x100 - ASPH-G
11/29 - 6101x150 - ASPH-G
ATIS:
120.6
Tower:
124
Ground:
121.6


50.3 NM291° True-14° Var276° HDG

Flight Plan:
(click to file on line)

1. Type
2. Aircraft Identification
3. Aircraft Type / Special Equipment
4. True Airspeed
kts
5. Departure Airport
(ICAO code)
6. Arriving Airport
(ICAO code)
7. Cruising Altitude
ft
8. Alternate Airport
(ICAO code)
9. Route of Flight
10. Remarks


00:00:00 Departure ATIS: Destination ATIS:

Clearance Limit:
Route:
Altitude: Expect in minutes
Frequency:
Transponder: (7500 Hijack / 7600 Lost Comms / 7700 Emergency)


KIZA 211635Z AUTO 23003KT 10SM CLR 21/10 A3010 RMK AO2
Time: 2021-09-21T16:35:00Z
1632243031
Winds: 230 @ 3 kts
Visibility: 10.0 sm
Clouds (AGL): CLR
Temperature: 21.0 C
Dew Point: 10.0 C
Pressure: 30.100393 in Hgbr

KSBP 211556Z 00000KT 10SM CLR 19/12 A3007 RMK AO2 SLP180 T01890122
Time: 2021-09-21T15:56:00Z
1632243031
Winds: calm
Visibility: 10.0 sm
Clouds (AGL): CLR
Temperature: 18.9 C
Dew Point: 12.2 C
Pressure: 30.070866 in Hgbr


Notes:

Data extracted from FAA Digital Chart Supplement. Effective: 0901Z Thursday, AUG 12, 2021 to 0901Z Thursday, OCT 7, 2021
Current ATIS data is provided courtisy of PilotEdge.